sensor_id;sensor_type;location;lat;lon;timestamp;P1;durP1;ratioP1;P2;durP2;ratioP2
13321;SDS011;6730;46.248;6.930;2022-11-15T00:00:40;1.88;;;1.30;;
13321;SDS011;6730;46.248;6.930;2022-11-15T00:03:05;2.42;;;1.50;;
13321;SDS011;6730;46.248;6.930;2022-11-15T00:05:33;1.90;;;1.50;;
13321;SDS011;6730;46.248;6.930;2022-11-15T00:08:00;2.78;;;1.60;;
13321;SDS011;6730;46.248;6.930;2022-11-15T00:10:26;1.77;;;1.40;;
13321;SDS011;6730;46.248;6.930;2022-11-15T00:12:52;1.70;;;1.35;;
13321;SDS011;6730;46.248;6.930;2022-11-15T00:15:17;2.20;;;1.50;;
13321;SDS011;6730;46.248;6.930;2022-11-15T00:17:43;4.70;;;2.13;;
13321;SDS011;6730;46.248;6.930;2022-11-15T00:20:09;3.70;;;1.75;;
13321;SDS011;6730;46.248;6.930;2022-11-15T00:22:36;4.10;;;1.88;;
13321;SDS011;6730;46.248;6.930;2022-11-15T00:25:02;2.30;;;1.55;;
13321;SDS011;6730;46.248;6.930;2022-11-15T00:27:28;1.58;;;1.48;;
13321;SDS011;6730;46.248;6.930;2022-11-15T00:29:54;1.63;;;1.52;;
13321;SDS011;6730;46.248;6.930;2022-11-15T00:32:19;1.63;;;1.40;;
13321;SDS011;6730;46.248;6.930;2022-11-15T00:34:45;2.40;;;1.60;;
13321;SDS011;6730;46.248;6.930;2022-11-15T00:37:14;1.90;;;1.60;;
13321;SDS011;6730;46.248;6.930;2022-11-15T00:39:40;3.30;;;1.88;;
13321;SDS011;6730;46.248;6.930;2022-11-15T00:42:06;2.58;;;1.73;;
13321;SDS011;6730;46.248;6.930;2022-11-15T00:44:32;2.67;;;1.60;;
13321;SDS011;6730;46.248;6.930;2022-11-15T00:46:57;2.38;;;1.70;;
13321;SDS011;6730;46.248;6.930;2022-11-15T00:49:23;1.70;;;1.55;;
13321;SDS011;6730;46.248;6.930;2022-11-15T00:51:48;2.08;;;1.50;;
13321;SDS011;6730;46.248;6.930;2022-11-15T00:54:14;2.58;;;1.33;;
13321;SDS011;6730;46.248;6.930;2022-11-15T00:56:40;2.10;;;1.50;;
13321;SDS011;6730;46.248;6.930;2022-11-15T00:59:05;2.53;;;1.98;;
13321;SDS011;6730;46.248;6.930;2022-11-15T01:01:31;2.47;;;2.03;;
13321;SDS011;6730;46.248;6.930;2022-11-15T01:03:56;1.90;;;1.70;;
13321;SDS011;6730;46.248;6.930;2022-11-15T01:06:23;1.92;;;1.58;;
13321;SDS011;6730;46.248;6.930;2022-11-15T01:08:48;1.95;;;1.67;;
13321;SDS011;6730;46.248;6.930;2022-11-15T01:11:14;1.95;;;1.58;;
13321;SDS011;6730;46.248;6.930;2022-11-15T01:13:40;2.75;;;1.60;;
13321;SDS011;6730;46.248;6.930;2022-11-15T01:16:11;2.65;;;1.83;;
13321;SDS011;6730;46.248;6.930;2022-11-15T01:18:40;2.33;;;1.90;;
13321;SDS011;6730;46.248;6.930;2022-11-15T01:21:12;2.65;;;1.75;;
13321;SDS011;6730;46.248;6.930;2022-11-15T01:23:40;2.65;;;1.83;;
13321;SDS011;6730;46.248;6.930;2022-11-15T01:26:07;1.90;;;1.60;;
13321;SDS011;6730;46.248;6.930;2022-11-15T01:28:35;1.90;;;1.70;;
13321;SDS011;6730;46.248;6.930;2022-11-15T01:31:04;1.98;;;1.65;;
13321;SDS011;6730;46.248;6.930;2022-11-15T01:33:37;1.88;;;1.60;;
13321;SDS011;6730;46.248;6.930;2022-11-15T01:36:14;1.90;;;1.63;;
13321;SDS011;6730;46.248;6.930;2022-11-15T01:38:53;1.55;;;1.40;;
13321;SDS011;6730;46.248;6.930;2022-11-15T01:41:24;2.13;;;1.40;;
13321;SDS011;6730;46.248;6.930;2022-11-15T01:43:56;2.50;;;1.35;;
13321;SDS011;6730;46.248;6.930;2022-11-15T01:46:40;2.35;;;1.52;;
13321;SDS011;6730;46.248;6.930;2022-11-15T01:49:13;1.67;;;1.52;;
13321;SDS011;6730;46.248;6.930;2022-11-15T01:51:41;1.85;;;1.50;;
13321;SDS011;6730;46.248;6.930;2022-11-15T01:54:08;3.35;;;1.67;;
13321;SDS011;6730;46.248;6.930;2022-11-15T01:56:41;1.60;;;1.50;;
13321;SDS011;6730;46.248;6.930;2022-11-15T01:59:18;1.63;;;1.48;;
13321;SDS011;6730;46.248;6.930;2022-11-15T02:01:45;1.70;;;1.40;;
13321;SDS011;6730;46.248;6.930;2022-11-15T02:04:16;2.42;;;1.70;;
13321;SDS011;6730;46.248;6.930;2022-11-15T02:06:44;1.52;;;1.20;;
13321;SDS011;6730;46.248;6.930;2022-11-15T02:09:11;2.67;;;1.50;;
13321;SDS011;6730;46.248;6.930;2022-11-15T02:11:37;2.20;;;1.33;;
13321;SDS011;6730;46.248;6.930;2022-11-15T02:14:03;2.50;;;1.40;;
13321;SDS011;6730;46.248;6.930;2022-11-15T02:19:02;2.42;;;1.30;;
13321;SDS011;6730;46.248;6.930;2022-11-15T02:21:35;2.45;;;1.23;;
13321;SDS011;6730;46.248;6.930;2022-11-15T02:36:34;1.45;;;1.35;;
13321;SDS011;6730;46.248;6.930;2022-11-15T02:44:39;1.77;;;1.33;;
13321;SDS011;6730;46.248;6.930;2022-11-15T02:47:11;2.40;;;1.52;;
13321;SDS011;6730;46.248;6.930;2022-11-15T02:49:42;1.75;;;1.52;;
13321;SDS011;6730;46.248;6.930;2022-11-15T02:52:15;1.60;;;1.33;;
13321;SDS011;6730;46.248;6.930;2022-11-15T02:57:21;2.42;;;1.60;;
13321;SDS011;6730;46.248;6.930;2022-11-15T03:00:09;2.10;;;1.40;;
13321;SDS011;6730;46.248;6.930;2022-11-15T03:05:42;2.08;;;1.30;;
13321;SDS011;6730;46.248;6.930;2022-11-15T03:08:25;1.80;;;1.55;;
13321;SDS011;6730;46.248;6.930;2022-11-15T03:14:18;1.80;;;1.33;;
13321;SDS011;6730;46.248;6.930;2022-11-15T03:21:52;1.40;;;1.23;;
13321;SDS011;6730;46.248;6.930;2022-11-15T03:24:21;2.00;;;1.35;;
13321;SDS011;6730;46.248;6.930;2022-11-15T03:26:50;1.80;;;1.40;;
13321;SDS011;6730;46.248;6.930;2022-11-15T03:29:20;1.92;;;1.42;;
13321;SDS011;6730;46.248;6.930;2022-11-15T03:31:51;2.97;;;1.63;;
13321;SDS011;6730;46.248;6.930;2022-11-15T03:34:34;1.55;;;1.40;;
13321;SDS011;6730;46.248;6.930;2022-11-15T03:37:05;2.85;;;1.40;;
13321;SDS011;6730;46.248;6.930;2022-11-15T03:39:32;1.58;;;1.48;;
13321;SDS011;6730;46.248;6.930;2022-11-15T03:44:45;3.05;;;1.75;;
13321;SDS011;6730;46.248;6.930;2022-11-15T03:47:24;2.20;;;1.40;;
13321;SDS011;6730;46.248;6.930;2022-11-15T03:49:59;2.05;;;1.55;;
13321;SDS011;6730;46.248;6.930;2022-11-15T03:52:35;1.25;;;1.13;;
13321;SDS011;6730;46.248;6.930;2022-11-15T03:55:03;1.40;;;1.30;;
13321;SDS011;6730;46.248;6.930;2022-11-15T03:57:30;1.92;;;1.50;;
13321;SDS011;6730;46.248;6.930;2022-11-15T03:59:56;1.88;;;1.52;;
13321;SDS011;6730;46.248;6.930;2022-11-15T04:02:21;2.38;;;1.60;;
13321;SDS011;6730;46.248;6.930;2022-11-15T04:04:47;3.10;;;1.40;;
13321;SDS011;6730;46.248;6.930;2022-11-15T04:07:13;1.40;;;1.30;;
13321;SDS011;6730;46.248;6.930;2022-11-15T04:09:38;1.55;;;1.27;;
13321;SDS011;6730;46.248;6.930;2022-11-15T04:12:24;2.47;;;1.45;;
13321;SDS011;6730;46.248;6.930;2022-11-15T04:15:08;1.85;;;1.35;;
13321;SDS011;6730;46.248;6.930;2022-11-15T04:17:40;2.40;;;1.40;;
13321;SDS011;6730;46.248;6.930;2022-11-15T04:20:19;1.90;;;1.33;;
13321;SDS011;6730;46.248;6.930;2022-11-15T04:23:05;2.13;;;1.55;;
13321;SDS011;6730;46.248;6.930;2022-11-15T04:25:54;2.53;;;1.10;;
13321;SDS011;6730;46.248;6.930;2022-11-15T04:28:21;2.17;;;1.10;;
13321;SDS011;6730;46.248;6.930;2022-11-15T04:30:47;3.63;;;1.20;;
13321;SDS011;6730;46.248;6.930;2022-11-15T04:33:13;2.60;;;1.23;;
13321;SDS011;6730;46.248;6.930;2022-11-15T04:35:39;2.13;;;1.40;;
13321;SDS011;6730;46.248;6.930;2022-11-15T04:38:06;3.58;;;1.52;;
13321;SDS011;6730;46.248;6.930;2022-11-15T04:40:33;2.17;;;1.40;;
13321;SDS011;6730;46.248;6.930;2022-11-15T04:42:59;3.97;;;1.88;;
13321;SDS011;6730;46.248;6.930;2022-11-15T04:45:24;2.08;;;1.33;;
13321;SDS011;6730;46.248;6.930;2022-11-15T04:47:50;1.52;;;1.35;;
13321;SDS011;6730;46.248;6.930;2022-11-15T04:50:16;1.38;;;1.10;;
13321;SDS011;6730;46.248;6.930;2022-11-15T04:52:42;2.05;;;1.63;;
13321;SDS011;6730;46.248;6.930;2022-11-15T04:55:14;2.35;;;1.40;;
13321;SDS011;6730;46.248;6.930;2022-11-15T04:57:40;3.28;;;1.90;;
13321;SDS011;6730;46.248;6.930;2022-11-15T05:00:07;1.48;;;1.38;;
13321;SDS011;6730;46.248;6.930;2022-11-15T05:02:35;2.55;;;1.35;;
13321;SDS011;6730;46.248;6.930;2022-11-15T05:05:19;2.30;;;1.52;;
13321;SDS011;6730;46.248;6.930;2022-11-15T05:07:45;1.90;;;1.45;;
13321;SDS011;6730;46.248;6.930;2022-11-15T05:10:10;1.75;;;1.60;;
13321;SDS011;6730;46.248;6.930;2022-11-15T05:12:36;3.05;;;1.30;;
13321;SDS011;6730;46.248;6.930;2022-11-15T05:15:02;2.33;;;1.40;;
13321;SDS011;6730;46.248;6.930;2022-11-15T05:17:28;2.45;;;1.70;;
13321;SDS011;6730;46.248;6.930;2022-11-15T05:19:54;3.45;;;1.70;;
13321;SDS011;6730;46.248;6.930;2022-11-15T05:22:19;3.17;;;1.50;;
13321;SDS011;6730;46.248;6.930;2022-11-15T05:24:46;2.60;;;1.60;;
13321;SDS011;6730;46.248;6.930;2022-11-15T05:27:12;2.58;;;1.60;;
13321;SDS011;6730;46.248;6.930;2022-11-15T05:29:37;1.85;;;1.50;;
13321;SDS011;6730;46.248;6.930;2022-11-15T05:32:04;2.90;;;1.60;;
13321;SDS011;6730;46.248;6.930;2022-11-15T05:34:31;3.25;;;2.00;;
13321;SDS011;6730;46.248;6.930;2022-11-15T05:36:57;2.97;;;1.58;;
13321;SDS011;6730;46.248;6.930;2022-11-15T05:39:24;1.73;;;1.40;;
13321;SDS011;6730;46.248;6.930;2022-11-15T05:41:58;2.35;;;1.30;;
13321;SDS011;6730;46.248;6.930;2022-11-15T05:44:31;3.30;;;1.48;;
13321;SDS011;6730;46.248;6.930;2022-11-15T05:46:58;1.95;;;1.70;;
13321;SDS011;6730;46.248;6.930;2022-11-15T05:49:25;1.50;;;1.30;;
13321;SDS011;6730;46.248;6.930;2022-11-15T05:51:54;1.83;;;1.42;;
13321;SDS011;6730;46.248;6.930;2022-11-15T05:54:21;2.88;;;1.70;;
13321;SDS011;6730;46.248;6.930;2022-11-15T05:56:48;2.03;;;1.33;;
13321;SDS011;6730;46.248;6.930;2022-11-15T05:59:14;1.38;;;1.10;;
13321;SDS011;6730;46.248;6.930;2022-11-15T06:01:40;3.10;;;1.35;;
13321;SDS011;6730;46.248;6.930;2022-11-15T06:04:07;2.15;;;1.50;;
13321;SDS011;6730;46.248;6.930;2022-11-15T06:06:32;1.58;;;1.48;;
13321;SDS011;6730;46.248;6.930;2022-11-15T06:08:58;1.63;;;1.35;;
13321;SDS011;6730;46.248;6.930;2022-11-15T06:11:23;2.22;;;1.30;;
13321;SDS011;6730;46.248;6.930;2022-11-15T06:13:49;2.60;;;1.48;;
13321;SDS011;6730;46.248;6.930;2022-11-15T06:16:15;1.85;;;1.45;;
13321;SDS011;6730;46.248;6.930;2022-11-15T06:18:41;2.70;;;1.63;;
13321;SDS011;6730;46.248;6.930;2022-11-15T06:21:06;2.55;;;1.27;;
13321;SDS011;6730;46.248;6.930;2022-11-15T06:23:33;1.40;;;1.30;;
13321;SDS011;6730;46.248;6.930;2022-11-15T06:26:01;2.58;;;1.23;;
13321;SDS011;6730;46.248;6.930;2022-11-15T06:28:28;1.70;;;1.23;;
13321;SDS011;6730;46.248;6.930;2022-11-15T06:30:54;1.17;;;0.95;;
13321;SDS011;6730;46.248;6.930;2022-11-15T06:33:20;1.80;;;1.33;;
13321;SDS011;6730;46.248;6.930;2022-11-15T06:35:46;2.20;;;1.45;;
13321;SDS011;6730;46.248;6.930;2022-11-15T06:38:12;1.88;;;1.60;;
13321;SDS011;6730;46.248;6.930;2022-11-15T06:40:37;2.67;;;1.65;;
13321;SDS011;6730;46.248;6.930;2022-11-15T06:43:04;1.98;;;1.35;;
13321;SDS011;6730;46.248;6.930;2022-11-15T06:45:30;1.52;;;1.35;;
13321;SDS011;6730;46.248;6.930;2022-11-15T06:47:57;1.92;;;1.67;;
13321;SDS011;6730;46.248;6.930;2022-11-15T06:50:23;1.52;;;1.30;;
13321;SDS011;6730;46.248;6.930;2022-11-15T06:52:49;1.48;;;1.38;;
13321;SDS011;6730;46.248;6.930;2022-11-15T06:55:15;2.47;;;1.75;;
13321;SDS011;6730;46.248;6.930;2022-11-15T06:57:47;1.70;;;1.30;;
13321;SDS011;6730;46.248;6.930;2022-11-15T07:00:14;1.80;;;1.48;;
13321;SDS011;6730;46.248;6.930;2022-11-15T07:02:41;1.35;;;1.25;;
13321;SDS011;6730;46.248;6.930;2022-11-15T07:05:07;1.95;;;1.50;;
13321;SDS011;6730;46.248;6.930;2022-11-15T07:07:32;2.50;;;1.48;;
13321;SDS011;6730;46.248;6.930;2022-11-15T07:09:58;2.58;;;1.60;;
13321;SDS011;6730;46.248;6.930;2022-11-15T07:12:23;2.15;;;1.50;;
13321;SDS011;6730;46.248;6.930;2022-11-15T07:14:49;2.67;;;1.50;;
13321;SDS011;6730;46.248;6.930;2022-11-15T07:17:15;2.00;;;1.50;;
13321;SDS011;6730;46.248;6.930;2022-11-15T07:19:41;1.42;;;1.27;;
13321;SDS011;6730;46.248;6.930;2022-11-15T07:22:06;1.55;;;1.45;;
13321;SDS011;6730;46.248;6.930;2022-11-15T07:24:32;1.98;;;1.70;;
13321;SDS011;6730;46.248;6.930;2022-11-15T07:26:57;1.70;;;1.58;;
13321;SDS011;6730;46.248;6.930;2022-11-15T07:29:23;1.70;;;1.50;;
13321;SDS011;6730;46.248;6.930;2022-11-15T07:31:49;3.33;;;1.60;;
13321;SDS011;6730;46.248;6.930;2022-11-15T07:34:15;2.38;;;1.23;;
13321;SDS011;6730;46.248;6.930;2022-11-15T07:36:41;1.25;;;1.15;;
13321;SDS011;6730;46.248;6.930;2022-11-15T07:39:07;2.08;;;1.45;;
13321;SDS011;6730;46.248;6.930;2022-11-15T07:41:32;1.85;;;1.40;;
13321;SDS011;6730;46.248;6.930;2022-11-15T07:43:58;1.40;;;1.30;;
13321;SDS011;6730;46.248;6.930;2022-11-15T07:46:24;1.23;;;0.93;;
13321;SDS011;6730;46.248;6.930;2022-11-15T07:48:50;2.38;;;2.05;;
13321;SDS011;6730;46.248;6.930;2022-11-15T07:51:16;3.80;;;1.85;;
13321;SDS011;6730;46.248;6.930;2022-11-15T07:53:42;4.05;;;2.38;;
13321;SDS011;6730;46.248;6.930;2022-11-15T07:56:08;4.32;;;2.20;;
13321;SDS011;6730;46.248;6.930;2022-11-15T07:58:34;3.78;;;2.58;;
13321;SDS011;6730;46.248;6.930;2022-11-15T08:01:03;3.63;;;2.17;;
13321;SDS011;6730;46.248;6.930;2022-11-15T08:03:30;2.65;;;1.80;;
13321;SDS011;6730;46.248;6.930;2022-11-15T08:05:55;3.50;;;2.25;;
13321;SDS011;6730;46.248;6.930;2022-11-15T08:08:21;3.00;;;2.63;;
13321;SDS011;6730;46.248;6.930;2022-11-15T08:10:47;7.05;;;2.80;;
13321;SDS011;6730;46.248;6.930;2022-11-15T08:13:13;3.95;;;2.53;;
13321;SDS011;6730;46.248;6.930;2022-11-15T08:15:38;2.63;;;2.42;;
13321;SDS011;6730;46.248;6.930;2022-11-15T08:18:06;3.45;;;2.28;;
13321;SDS011;6730;46.248;6.930;2022-11-15T08:20:36;1.90;;;1.63;;
13321;SDS011;6730;46.248;6.930;2022-11-15T08:23:02;3.63;;;2.58;;
13321;SDS011;6730;46.248;6.930;2022-11-15T08:25:30;3.22;;;1.90;;
13321;SDS011;6730;46.248;6.930;2022-11-15T08:27:57;2.67;;;2.30;;
13321;SDS011;6730;46.248;6.930;2022-11-15T08:30:28;3.03;;;2.20;;
13321;SDS011;6730;46.248;6.930;2022-11-15T08:32:55;3.92;;;1.77;;
13321;SDS011;6730;46.248;6.930;2022-11-15T08:35:23;2.60;;;1.45;;
13321;SDS011;6730;46.248;6.930;2022-11-15T08:37:49;2.75;;;2.30;;
13321;SDS011;6730;46.248;6.930;2022-11-15T08:40:17;5.20;;;3.63;;
13321;SDS011;6730;46.248;6.930;2022-11-15T08:42:45;4.72;;;2.85;;
13321;SDS011;6730;46.248;6.930;2022-11-15T08:45:11;4.20;;;2.75;;
13321;SDS011;6730;46.248;6.930;2022-11-15T08:47:37;5.72;;;2.42;;
13321;SDS011;6730;46.248;6.930;2022-11-15T08:50:03;3.00;;;2.28;;
13321;SDS011;6730;46.248;6.930;2022-11-15T08:52:29;5.18;;;2.63;;
13321;SDS011;6730;46.248;6.930;2022-11-15T08:54:55;3.45;;;2.75;;
13321;SDS011;6730;46.248;6.930;2022-11-15T08:57:20;2.50;;;2.30;;
13321;SDS011;6730;46.248;6.930;2022-11-15T08:59:46;3.22;;;2.28;;
13321;SDS011;6730;46.248;6.930;2022-11-15T09:02:12;2.15;;;1.55;;
13321;SDS011;6730;46.248;6.930;2022-11-15T09:04:41;4.80;;;3.60;;
13321;SDS011;6730;46.248;6.930;2022-11-15T09:07:11;4.50;;;2.85;;
13321;SDS011;6730;46.248;6.930;2022-11-15T09:09:37;2.30;;;2.10;;
13321;SDS011;6730;46.248;6.930;2022-11-15T09:12:03;4.65;;;2.22;;
13321;SDS011;6730;46.248;6.930;2022-11-15T09:14:29;6.63;;;2.83;;
13321;SDS011;6730;46.248;6.930;2022-11-15T09:16:55;6.28;;;2.38;;
13321;SDS011;6730;46.248;6.930;2022-11-15T09:19:21;3.50;;;2.30;;
13321;SDS011;6730;46.248;6.930;2022-11-15T09:21:46;2.53;;;1.65;;
13321;SDS011;6730;46.248;6.930;2022-11-15T09:24:12;3.35;;;1.80;;
13321;SDS011;6730;46.248;6.930;2022-11-15T09:26:38;4.05;;;1.85;;
13321;SDS011;6730;46.248;6.930;2022-11-15T09:29:04;4.10;;;1.70;;
13321;SDS011;6730;46.248;6.930;2022-11-15T09:31:30;2.10;;;1.60;;
13321;SDS011;6730;46.248;6.930;2022-11-15T09:33:55;2.63;;;1.45;;
13321;SDS011;6730;46.248;6.930;2022-11-15T09:36:21;2.05;;;1.75;;
13321;SDS011;6730;46.248;6.930;2022-11-15T09:38:47;3.78;;;2.35;;
13321;SDS011;6730;46.248;6.930;2022-11-15T09:46:20;4.35;;;2.47;;
13321;SDS011;6730;46.248;6.930;2022-11-15T09:49:10;3.17;;;2.30;;
13321;SDS011;6730;46.248;6.930;2022-11-15T09:51:41;3.17;;;1.92;;
13321;SDS011;6730;46.248;6.930;2022-11-15T09:57:15;2.97;;;1.88;;
13321;SDS011;6730;46.248;6.930;2022-11-15T10:02:41;3.25;;;2.33;;
13321;SDS011;6730;46.248;6.930;2022-11-15T10:05:16;2.72;;;2.25;;
13321;SDS011;6730;46.248;6.930;2022-11-15T10:12:59;3.45;;;3.05;;
13321;SDS011;6730;46.248;6.930;2022-11-15T10:15:25;2.92;;;1.83;;
13321;SDS011;6730;46.248;6.930;2022-11-15T10:20:27;2.17;;;1.63;;
13321;SDS011;6730;46.248;6.930;2022-11-15T10:22:56;5.30;;;2.47;;
13321;SDS011;6730;46.248;6.930;2022-11-15T10:25:25;2.80;;;1.90;;
13321;SDS011;6730;46.248;6.930;2022-11-15T10:27:59;3.80;;;2.28;;
13321;SDS011;6730;46.248;6.930;2022-11-15T10:30:41;2.85;;;2.00;;
13321;SDS011;6730;46.248;6.930;2022-11-15T10:33:14;3.38;;;2.80;;
13321;SDS011;6730;46.248;6.930;2022-11-15T10:35:44;4.10;;;2.67;;
13321;SDS011;6730;46.248;6.930;2022-11-15T10:38:10;3.08;;;2.30;;
13321;SDS011;6730;46.248;6.930;2022-11-15T10:40:37;2.33;;;2.13;;
13321;SDS011;6730;46.248;6.930;2022-11-15T10:45:41;4.10;;;2.38;;
13321;SDS011;6730;46.248;6.930;2022-11-15T10:50:39;4.90;;;2.80;;
13321;SDS011;6730;46.248;6.930;2022-11-15T10:53:15;3.80;;;2.05;;
13321;SDS011;6730;46.248;6.930;2022-11-15T10:55:54;2.92;;;2.00;;
13321;SDS011;6730;46.248;6.930;2022-11-15T11:00:52;2.63;;;2.05;;
13321;SDS011;6730;46.248;6.930;2022-11-15T11:03:29;3.05;;;2.30;;
13321;SDS011;6730;46.248;6.930;2022-11-15T11:06:45;5.13;;;3.45;;
13321;SDS011;6730;46.248;6.930;2022-11-15T11:11:24;2.72;;;2.05;;
13321;SDS011;6730;46.248;6.930;2022-11-15T11:14:21;2.60;;;1.77;;
13321;SDS011;6730;46.248;6.930;2022-11-15T11:16:52;1.77;;;1.50;;
13321;SDS011;6730;46.248;6.930;2022-11-15T11:19:42;2.58;;;2.10;;
13321;SDS011;6730;46.248;6.930;2022-11-15T11:36:18;4.63;;;2.20;;
13321;SDS011;6730;46.248;6.930;2022-11-15T11:38:54;2.72;;;1.95;;
13321;SDS011;6730;46.248;6.930;2022-11-15T11:41:39;2.53;;;1.70;;
13321;SDS011;6730;46.248;6.930;2022-11-15T11:44:25;2.45;;;1.80;;
13321;SDS011;6730;46.248;6.930;2022-11-15T11:46:55;2.30;;;1.60;;
13321;SDS011;6730;46.248;6.930;2022-11-15T11:52:18;2.08;;;1.88;;
13321;SDS011;6730;46.248;6.930;2022-11-15T11:57:45;4.45;;;3.17;;
13321;SDS011;6730;46.248;6.930;2022-11-15T12:00:31;2.45;;;1.85;;
13321;SDS011;6730;46.248;6.930;2022-11-15T12:06:00;3.08;;;1.70;;
13321;SDS011;6730;46.248;6.930;2022-11-15T12:14:12;2.00;;;1.80;;
13321;SDS011;6730;46.248;6.930;2022-11-15T12:17:02;4.10;;;2.53;;
13321;SDS011;6730;46.248;6.930;2022-11-15T12:19:28;3.38;;;1.88;;
13321;SDS011;6730;46.248;6.930;2022-11-15T12:24:43;5.13;;;1.77;;
13321;SDS011;6730;46.248;6.930;2022-11-15T12:30:16;2.05;;;1.75;;
13321;SDS011;6730;46.248;6.930;2022-11-15T12:33:00;1.75;;;1.65;;
13321;SDS011;6730;46.248;6.930;2022-11-15T12:35:35;2.83;;;2.42;;
13321;SDS011;6730;46.248;6.930;2022-11-15T12:38:03;3.83;;;2.30;;
13321;SDS011;6730;46.248;6.930;2022-11-15T12:45:41;4.25;;;2.58;;
13321;SDS011;6730;46.248;6.930;2022-11-15T12:50:59;2.88;;;2.22;;
13321;SDS011;6730;46.248;6.930;2022-11-15T12:53:29;2.20;;;2.00;;
13321;SDS011;6730;46.248;6.930;2022-11-15T12:58:38;4.88;;;2.35;;
13321;SDS011;6730;46.248;6.930;2022-11-15T13:01:09;2.88;;;1.75;;
13321;SDS011;6730;46.248;6.930;2022-11-15T13:03:35;3.25;;;2.03;;
13321;SDS011;6730;46.248;6.930;2022-11-15T13:06:37;2.05;;;1.85;;
13321;SDS011;6730;46.248;6.930;2022-11-15T13:19:45;1.80;;;1.70;;
13321;SDS011;6730;46.248;6.930;2022-11-15T13:22:12;3.90;;;1.80;;
13321;SDS011;6730;46.248;6.930;2022-11-15T13:24:57;2.95;;;2.05;;
13321;SDS011;6730;46.248;6.930;2022-11-15T13:27:23;2.53;;;1.80;;
13321;SDS011;6730;46.248;6.930;2022-11-15T13:29:51;5.97;;;3.47;;
13321;SDS011;6730;46.248;6.930;2022-11-15T13:32:18;2.38;;;2.05;;
13321;SDS011;6730;46.248;6.930;2022-11-15T13:34:44;3.78;;;2.05;;
13321;SDS011;6730;46.248;6.930;2022-11-15T13:39:47;5.25;;;2.15;;
13321;SDS011;6730;46.248;6.930;2022-11-15T13:42:18;4.85;;;1.90;;
13321;SDS011;6730;46.248;6.930;2022-11-15T13:44:58;3.75;;;2.70;;
13321;SDS011;6730;46.248;6.930;2022-11-15T13:47:26;2.75;;;1.88;;
13321;SDS011;6730;46.248;6.930;2022-11-15T13:49:53;2.90;;;2.38;;
13321;SDS011;6730;46.248;6.930;2022-11-15T13:52:21;4.80;;;3.10;;
13321;SDS011;6730;46.248;6.930;2022-11-15T13:54:57;4.47;;;2.88;;
13321;SDS011;6730;46.248;6.930;2022-11-15T14:02:51;11.15;;;7.05;;
13321;SDS011;6730;46.248;6.930;2022-11-15T14:05:19;5.00;;;3.47;;
13321;SDS011;6730;46.248;6.930;2022-11-15T14:07:55;4.82;;;3.95;;
13321;SDS011;6730;46.248;6.930;2022-11-15T14:10:39;5.38;;;3.28;;
13321;SDS011;6730;46.248;6.930;2022-11-15T14:13:27;5.25;;;3.25;;
13321;SDS011;6730;46.248;6.930;2022-11-15T14:16:12;4.85;;;2.95;;
13321;SDS011;6730;46.248;6.930;2022-11-15T14:18:44;2.95;;;2.08;;
13321;SDS011;6730;46.248;6.930;2022-11-15T14:21:10;4.65;;;2.63;;
13321;SDS011;6730;46.248;6.930;2022-11-15T14:23:37;6.22;;;3.28;;
13321;SDS011;6730;46.248;6.930;2022-11-15T14:26:03;5.30;;;4.00;;
13321;SDS011;6730;46.248;6.930;2022-11-15T14:28:32;4.20;;;2.35;;
13321;SDS011;6730;46.248;6.930;2022-11-15T14:31:01;3.92;;;2.58;;
13321;SDS011;6730;46.248;6.930;2022-11-15T14:33:38;5.90;;;2.90;;
13321;SDS011;6730;46.248;6.930;2022-11-15T14:36:17;5.00;;;2.95;;
13321;SDS011;6730;46.248;6.930;2022-11-15T14:38:44;4.55;;;3.22;;
13321;SDS011;6730;46.248;6.930;2022-11-15T14:41:24;5.20;;;3.90;;
13321;SDS011;6730;46.248;6.930;2022-11-15T14:43:51;5.35;;;2.78;;
13321;SDS011;6730;46.248;6.930;2022-11-15T14:46:18;5.07;;;2.97;;
13321;SDS011;6730;46.248;6.930;2022-11-15T14:48:44;3.30;;;2.60;;
13321;SDS011;6730;46.248;6.930;2022-11-15T14:51:14;5.00;;;2.90;;
13321;SDS011;6730;46.248;6.930;2022-11-15T14:53:42;5.05;;;3.28;;
13321;SDS011;6730;46.248;6.930;2022-11-15T14:56:10;5.25;;;3.28;;
13321;SDS011;6730;46.248;6.930;2022-11-15T14:58:35;12.93;;;3.38;;
13321;SDS011;6730;46.248;6.930;2022-11-15T15:01:02;7.18;;;3.22;;
13321;SDS011;6730;46.248;6.930;2022-11-15T15:03:47;7.03;;;2.85;;
13321;SDS011;6730;46.248;6.930;2022-11-15T15:06:13;6.32;;;2.63;;
13321;SDS011;6730;46.248;6.930;2022-11-15T15:08:39;9.27;;;3.13;;
13321;SDS011;6730;46.248;6.930;2022-11-15T15:11:14;4.40;;;2.70;;
13321;SDS011;6730;46.248;6.930;2022-11-15T15:13:51;5.82;;;2.42;;
13321;SDS011;6730;46.248;6.930;2022-11-15T15:16:17;6.78;;;3.10;;
13321;SDS011;6730;46.248;6.930;2022-11-15T15:18:43;5.95;;;2.70;;
13321;SDS011;6730;46.248;6.930;2022-11-15T15:21:20;3.17;;;2.53;;
13321;SDS011;6730;46.248;6.930;2022-11-15T15:23:47;8.23;;;2.90;;
13321;SDS011;6730;46.248;6.930;2022-11-15T15:26:13;2.75;;;1.70;;
13321;SDS011;6730;46.248;6.930;2022-11-15T15:28:39;4.38;;;1.58;;
13321;SDS011;6730;46.248;6.930;2022-11-15T15:31:04;2.88;;;1.35;;
13321;SDS011;6730;46.248;6.930;2022-11-15T15:33:31;5.18;;;2.00;;
13321;SDS011;6730;46.248;6.930;2022-11-15T15:35:57;2.95;;;2.10;;
13321;SDS011;6730;46.248;6.930;2022-11-15T15:38:23;4.60;;;2.38;;
13321;SDS011;6730;46.248;6.930;2022-11-15T15:40:49;3.75;;;2.00;;
13321;SDS011;6730;46.248;6.930;2022-11-15T15:43:14;4.13;;;2.00;;
13321;SDS011;6730;46.248;6.930;2022-11-15T15:45:40;4.32;;;1.80;;
13321;SDS011;6730;46.248;6.930;2022-11-15T15:48:13;2.45;;;1.48;;
13321;SDS011;6730;46.248;6.930;2022-11-15T15:50:40;2.20;;;1.40;;
13321;SDS011;6730;46.248;6.930;2022-11-15T15:53:07;2.55;;;1.30;;
13321;SDS011;6730;46.248;6.930;2022-11-15T15:55:36;1.52;;;1.42;;
13321;SDS011;6730;46.248;6.930;2022-11-15T15:58:04;1.25;;;1.10;;
13321;SDS011;6730;46.248;6.930;2022-11-15T16:00:30;1.50;;;1.10;;
13321;SDS011;6730;46.248;6.930;2022-11-15T16:02:59;1.20;;;1.10;;
13321;SDS011;6730;46.248;6.930;2022-11-15T16:05:24;1.70;;;1.40;;
13321;SDS011;6730;46.248;6.930;2022-11-15T16:07:50;1.38;;;1.20;;
13321;SDS011;6730;46.248;6.930;2022-11-15T16:12:53;3.00;;;1.10;;
13321;SDS011;6730;46.248;6.930;2022-11-15T16:15:20;1.10;;;1.00;;
13321;SDS011;6730;46.248;6.930;2022-11-15T16:17:48;1.10;;;1.00;;
13321;SDS011;6730;46.248;6.930;2022-11-15T16:22:57;1.67;;;1.17;;
13321;SDS011;6730;46.248;6.930;2022-11-15T16:25:24;1.10;;;1.00;;
13321;SDS011;6730;46.248;6.930;2022-11-15T16:27:50;1.60;;;1.00;;
13321;SDS011;6730;46.248;6.930;2022-11-15T16:30:18;1.50;;;1.02;;
13321;SDS011;6730;46.248;6.930;2022-11-15T16:32:46;1.17;;;1.08;;
13321;SDS011;6730;46.248;6.930;2022-11-15T16:35:12;2.20;;;0.98;;
13321;SDS011;6730;46.248;6.930;2022-11-15T16:37:38;1.08;;;0.98;;
13321;SDS011;6730;46.248;6.930;2022-11-15T16:40:27;2.22;;;1.15;;
13321;SDS011;6730;46.248;6.930;2022-11-15T16:42:56;1.13;;;1.02;;
13321;SDS011;6730;46.248;6.930;2022-11-15T16:45:24;1.33;;;1.00;;
13321;SDS011;6730;46.248;6.930;2022-11-15T16:47:50;1.40;;;1.02;;
13321;SDS011;6730;46.248;6.930;2022-11-15T16:50:38;2.22;;;1.00;;
13321;SDS011;6730;46.248;6.930;2022-11-15T16:53:06;1.20;;;1.00;;
13321;SDS011;6730;46.248;6.930;2022-11-15T16:55:32;1.35;;;0.93;;
13321;SDS011;6730;46.248;6.930;2022-11-15T16:57:58;1.20;;;1.10;;
13321;SDS011;6730;46.248;6.930;2022-11-15T17:00:24;1.58;;;1.25;;
13321;SDS011;6730;46.248;6.930;2022-11-15T17:02:50;1.63;;;1.45;;
13321;SDS011;6730;46.248;6.930;2022-11-15T17:05:17;1.70;;;1.20;;
13321;SDS011;6730;46.248;6.930;2022-11-15T17:07:46;1.30;;;1.20;;
13321;SDS011;6730;46.248;6.930;2022-11-15T17:10:14;1.13;;;1.00;;
13321;SDS011;6730;46.248;6.930;2022-11-15T17:12:40;1.23;;;1.13;;
13321;SDS011;6730;46.248;6.930;2022-11-15T17:15:06;1.17;;;0.93;;
13321;SDS011;6730;46.248;6.930;2022-11-15T17:17:35;1.02;;;0.93;;
13321;SDS011;6730;46.248;6.930;2022-11-15T17:20:00;1.30;;;1.10;;
13321;SDS011;6730;46.248;6.930;2022-11-15T17:22:29;1.20;;;1.10;;
13321;SDS011;6730;46.248;6.930;2022-11-15T17:24:54;1.48;;;1.38;;
13321;SDS011;6730;46.248;6.930;2022-11-15T17:27:20;1.80;;;1.40;;